ヨハネスブルグ/O.R.タンボ国際空港の過去48時間の天気

ヨハネスブルグ/O.R.タンボ国際空港 (Johannesburg International Airport)

現在時刻: 10/1 17:20 SAST (10/1 15:20 UTC) 以下の時間は現地時間です。

過去48時間のMETAR気象情報
時間 風向 風速(m/s) 視程 気温(℃) 湿度(%) 気圧(hPa) 天気現象
1 17:00 北西 5 10km以上 23 50 1017
1 16:30 北西 5 10km以上 23 50 1017
1 16:00 北北西 6 10km以上 22 57 1017
1 15:30 北西 5 10km以上 22 57 1017
1 15:00 北北西 6 10km以上 23 53 1017
1 14:30 北北西 6 10km以上 22 57 1017
1 14:00 北北西 7 10km以上 21 60 1017
1 13:30 北北西 7 10km以上 21 64 1017
1 13:00 北北西 8 10km以上 21 64 1017
1 12:00 北北西 8 10km以上 19 73 1018
1 11:30 9 10km以上 18 77 1019
1 11:00 10 10km以上 16 88 1019
1 10:30 9 10km以上 15 94 1019
1 10:00 8 10km以上 14 94 1019
1 09:00 9 10km以上 14 94 1019
1 08:30 9 10km以上 14 94 1019
1 08:00 10 10km以上 14 94 1019
1 07:30 8 10km以上 13 100 1019
1 07:00 11 10km以上 13 94 1017 弱い雷雨
1 06:30 8 10km以上 13 94 1018 弱い雨
1 06:00 9 10km以上 13 94 1018 弱い雷雨
1 05:30 8 6000m 13 94 1018
1 05:00 9 8000m 13 94 1017
1 04:30 8 10km以上 13 94 1017
1 04:00 8 10km以上 13 94 1017
1 03:00 10 10km以上 13 94 1018
1 02:00 8 10km以上 13 94 1018
1 01:00 10 10km以上 13 94 1019
1 00:00 9 10km以上 13 88 1020
30 23:00 9 10km以上 13 88 1020
30 22:00 10 10km以上 14 82 1021
30 21:30 10 10km以上 15 77 1021
30 21:00 10 10km以上 15 82 1021
30 20:30 10 10km以上 15 82 1021
30 20:00 北北東 12 10km以上 16 77 1020
30 19:30 10 10km以上 18 64 1020
30 19:00 北北東 10 10km以上 18 64 1019
30 18:30 9 10km以上 19 56 1019
30 18:00 8 10km以上 21 46 1019
30 17:00 7 10km以上 22 43 1019
30 16:00 9 10km以上 22 41 1019
30 15:30 8 10km以上 22 43 1019
30 15:00 10 10km以上 22 43 1020
30 14:30 北北西 6 10km以上 22 43 1020
30 14:00 8 10km以上 22 41 1021
30 13:00 8 10km以上 20 49 1022
30 12:00 7 10km以上 20 49 1023
30 11:30 8 10km以上 20 53 1023
30 11:00 8 10km以上 19 56 1024
30 10:30 9 10km以上 17 63 1024
30 10:00 9 10km以上 17 68 1025
30 09:30 9 10km以上 16 72 1025
30 09:00 9 10km以上 16 72 1025
30 08:30 7 10km以上 15 82 1025 弱い雨
30 08:00 7 10km以上 15 82 1024
30 07:30 北北東 7 10km以上 14 88 1024
30 07:00 北東 5 10km以上 13 88 1024
30 06:30 北東 4 10km以上 12 94 1024
30 06:00 北東 5 10km以上 12 94 1023
30 05:00 東北東 5 10km以上 12 88 1023
30 04:00 4 9000m 12 88 1023
30 03:00 4 7000m 12 88 1023
30 02:30 5 6000m 11 94 1023
30 02:00 4 9000m 11 87 1023
30 01:00 東南東 3 10km以上 10 54 1024
30 00:00 6 10km以上 11 22 1024
29 23:00 5 10km以上 10 23 1024
29 22:00 6 10km以上 12 20 1024
29 21:00 5 10km以上 13 18 1024
29 20:00 南南東 4 10km以上 15 16 1023
29 19:30 5 10km以上 14 14 1023
29 19:00 4 10km以上 16 11 1023
29 18:30 南南西 5 10km以上 19 9 1022
29 18:00 南西 5 10km以上 21 7 1022
29 17:30 5 10km以上 21 7 1022
FAOR 011500Z 32009KT 270V360 9999 FEW045 23/12 Q1017 NOSIG
FAOR 011430Z 32010KT 9999 FEW045 23/12 Q1017 NOSIG
FAOR 011400Z 34011KT 9999 FEW040 22/13 Q1017 NOSIG
FAOR 011330Z 31010KT 280V340 9999 SCT036 22/13 Q1017 NOSIG
FAOR 011300Z 33011KT 290V360 9999 SCT035 23/13 Q1017 NOSIG
FAOR 011230Z 34012KT 300V010 9999 SCT035 22/13 Q1017 NOSIG
FAOR 011200Z 34013KT 9999 SCT030 21/13 Q1017 NOSIG
FAOR 011130Z 33014KT 9999 SCT025 21/14 Q1017 NOSIG
FAOR 011100Z 33016G29KT 300V010 9999 SCT021 21/14 Q1017 NOSIG
FAOR 011000Z 33016KT 9999 BKN020 19/14 Q1018 NOSIG
FAOR 010930Z 35017KT 9999 OVC017 18/14 Q1019 NOSIG
FAOR 010900Z 35019KT 9999 BKN008 BKN011 OVC017 16/14 Q1019 NOSI G
FAOR 010830Z 35017KT 9999 BKN005 OVC014 15/14 Q1019 NOSIG
FAOR 010800Z 36015KT 9999 OVC004 14/13 Q1019 NOSIG
FAOR 010700Z 36017KT 9999 OVC004 14/13 Q1019 NOSIG
FAOR 010630Z 01017KT 9999 BKN004 14/13 Q1019 NOSIG
FAOR 010600Z 01020KT 9999 BKN004 14/13 Q1019 NOSIG
FAOR 010530Z 35015KT 9999 BKN004 13/13 Q1019 NOSIG
FAOR 010500Z 01022KT 9999 -TSRA BKN004 SCT007CB 13/12 Q1017 NOS IG
FAOR 010430Z 35015KT 9999 -RA BKN004 BKN007 13/12 Q1018 NOSIG
FAOR 010400Z 36018KT 9999 -TSRA OVC004 FEW///CB 13/12 Q1018 NOSIG
FAOR 010330Z 36015KT 6000 OVC002 13/12 Q1018 TEMPO -TSRA FEW030 CB
FAOR 010300Z 01017KT 8000 OVC002 13/12 Q1017 TEMPO -TSRA FEW030CB
FAOR 010230Z 36015KT 9999 OVC003 13/12 Q1017 NOSIG
FAOR 010200Z 35016KT 9999 OVC004 13/12 Q1017 NOSIG
FAOR 010100Z 36019KT 9999 OVC003 13/12 Q1018 NOSIG
FAOR 010000Z 36016KT 9999 OVC004 13/12 Q1018 NOSIG
FAOR 302300Z 36019KT 9999 OVC006 13/12 Q1019 TEMPO OVC005
FAOR 302200Z 01018KT 9999 OVC008 13/11 Q1020 TEMPO OVC005
FAOR 302100Z 01018KT 9999 BKN015 13/11 Q1020 NOSIG
FAOR 302000Z 36019KT 9999 SCT015 14/11 Q1021 NOSIG
FAOR 301930Z 36020KT 9999 SCT015 15/11 Q1021 NOSIG
FAOR 301900Z 36019KT 9999 BKN015 15/12 Q1021 NOSIG
FAOR 301830Z 01020KT 9999 BKN015 15/12 Q1021 NOSIG
FAOR 301800Z 02023KT 9999 SCT020 16/12 Q1020 NOSIG
FAOR 301730Z 01020KT CAVOK 18/11 Q1020 NOSIG
FAOR 301700Z 02019KT CAVOK 18/11 Q1019 NOSIG
FAOR 301630Z 01017KT CAVOK 19/10 Q1019 NOSIG
FAOR 301600Z 36016KT CAVOK 21/09 Q1019 NOSIG
FAOR 301500Z 35014KT CAVOK 22/09 Q1019 NOSIG
FAOR 301400Z 36018KT CAVOK 22/08 Q1019 NOSIG
FAOR 301330Z 35015KT 310V020 CAVOK 22/09 Q1019 NOSIG
FAOR 301300Z 36019KT 9999 SCT049 22/09 Q1020 NOSIG
FAOR 301230Z 33012KT 300V360 9999 SCT048 22/09 Q1020 NOSIG
FAOR 301200Z 35015KT 9999 SCT045 22/08 Q1021 NOSIG
FAOR 301100Z 36016KT 310V030 9999 SCT044 20/09 Q1022 NOSIG
FAOR 301000Z 35014G25KT 320V020 9999 SCT030 20/09 Q1023 NOSIG
FAOR 300930Z 35016KT 310V010 9999 SCT026 20/10 Q1023 NOSIG
FAOR 300900Z 35015KT 9999 SCT020 19/10 Q1024 NOSIG
FAOR 300830Z 36017KT 9999 SCT020 17/10 Q1024 NOSIG
FAOR 300800Z 36017KT 9999 SCT016 BKN030 17/11 Q1025 NOSIG
FAOR 300730Z 36017KT 9999 SCT015 BKN030 16/11 Q1025 NOSIG
FAOR 300700Z 36017KT 9999 BKN012 BKN030 16/11 Q1025 BECMG SCT015
FAOR 300630Z 35013KT 9999 -RA BKN010 BKN025 15/12 Q1025 BECMG S CT015
FAOR 300600Z 36013KT 9999 BKN009 BKN020 15/12 Q1024 BECMG SCT010
FAOR 300530Z 02013KT 9999 BKN007 BKN020 14/12 Q1024 BECMG SCT01 0
FAOR 300500Z 04009KT 9999 OVC007 13/11 Q1024 BECMG BKN010
FAOR 300430Z 04007KT 9999 OVC007 12/11 Q1024 BECMG BKN010
FAOR 300400Z 05009KT 9999 OVC006 12/11 Q1023 NOSIG
FAOR 300300Z 06009KT 9999 OVC007 12/10 Q1023 TEMPO 5000 BR BKN005
FAOR 300200Z 08008KT 9000 BKN010 12/10 Q1023 NOSIG
FAOR 300100Z 09008KT 7000 BKN003 12/10 Q1023 TEMPO 5000 BR BKN002
FAOR 300030Z 09009KT 6000 BKN003 11/10 Q1023 TEMPO 5000 BR BKN0 02
FAOR 300000Z 08007KT 9000 BKN004 11/09 Q1023 TEMPO 5000 BR
FAOR 292300Z 12005KT CAVOK 10/01 Q1024 NOSIG
FAOR 292200Z 17011KT CAVOK 11/M10 Q1024 NOSIG
FAOR 292100Z 18009KT CAVOK 10/M10 Q1024 NOSIG
FAOR 292000Z 18011KT CAVOK 12/M10 Q1024 NOSIG
FAOR 291900Z 18010KT CAVOK 13/M11 Q1024 NOSIG
FAOR 291800Z 16008KT CAVOK 15/M11 Q1023 NOSIG
FAOR 291730Z 18009KT CAVOK 14/M13 Q1023 NOSIG
FAOR 291700Z 19008KT CAVOK 16/M14 Q1023 NOSIG
FAOR 291630Z 20009KT CAVOK 19/M15 Q1022 NOSIG
FAOR 291600Z 22009KT CAVOK 21/M16 Q1022 NOSIG
FAOR 291530Z 19009KT CAVOK 21/M16 Q1022 NOSIG